Terminal Aerodrome Forecast
Issued by NWS

Home | Current Version | Previous Version | Text Only | Print | Product List | Glossary On
Versions: 1 2 3 4 5 6 7 8 9 10 11 12 13 14 15 16
000
FTUS41 KCAR 291736
TAFHUL
TAF
KHUL 291736Z 2918/3018 31007KT P6SM SKC
     FM292200 25006KT P6SM FEW250
     FM301000 20010KT P6SM BKN100
     FM301500 19011KT P6SM -SHRA OVC040=

USA.gov is the U.S. government's official web portal to all federal, state and local government web resources and services.